Time;durP1;ratioP1;P1;durP2;ratioP2;P2;SDS_P1;SDS_P2;PMS_P1;PMS_P2;Temp;Humidity;BMP_temperature;BMP_pressure;BME280_temperature;BME280_humidity;BME280_pressure;Samples;Min_cycle;Max_cycle;Signal;HPM_P1;HPM_P2
2022/11/28 00:00:19;;;;;;;15.10;12.38;;;;;;;;;;5039590;28;20268;-65
2022/11/28 00:02:47;;;;;;;12.82;11.52;;;;;;;;;;5039347;28;20205;-65
2022/11/28 00:05:16;;;;;;;12.52;11.23;;;;;;;;;;5047076;28;20251;-65
2022/11/28 00:07:44;;;;;;;13.85;11.75;;;;;;;;;;5059019;28;20640;-65
2022/11/28 00:10:12;;;;;;;12.70;11.40;;;;;;;;;;5059291;28;20201;-65
2022/11/28 00:12:41;;;;;;;11.27;10.07;;;;;;;;;;5060086;28;20205;-65
2022/11/28 00:15:09;;;;;;;12.57;10.75;;;;;;;;;;5059828;28;20212;-65
2022/11/28 00:17:36;;;;;;;11.07;9.88;;;;;;;;;;5059576;28;20209;-65
2022/11/28 00:20:05;;;;;;;11.30;9.93;;;;;;;;;;5060023;28;20209;-65
2022/11/28 00:22:34;;;;;;;10.77;9.68;;;;;;;;;;5059720;28;20209;-65
2022/11/28 00:25:02;;;;;;;11.35;10.15;;;;;;;;;;5059807;28;20302;-65
2022/11/28 00:27:30;;;;;;;11.30;9.20;;;;;;;;;;5059376;28;20211;-65
2022/11/28 00:29:58;;;;;;;10.55;9.27;;;;;;;;;;5046092;28;20202;-65
2022/11/28 00:32:25;;;;;;;9.27;8.38;;;;;;;;;;5039369;28;20209;-65
2022/11/28 00:34:53;;;;;;;9.60;8.55;;;;;;;;;;5039636;28;20206;-65
2022/11/28 00:37:21;;;;;;;9.55;8.60;;;;;;;;;;5039338;28;20484;-65
2022/11/28 00:39:50;;;;;;;9.80;8.70;;;;;;;;;;5039253;28;20206;-65
2022/11/28 00:42:19;;;;;;;9.52;8.50;;;;;;;;;;5039088;28;20205;-66
2022/11/28 00:44:47;;;;;;;8.13;7.32;;;;;;;;;;5039189;28;20315;-65
2022/11/28 00:47:15;;;;;;;8.85;7.95;;;;;;;;;;5039442;28;20487;-65
2022/11/28 00:49:43;;;;;;;8.50;7.60;;;;;;;;;;5038750;28;20217;-65
2022/11/28 00:52:10;;;;;;;7.78;6.97;;;;;;;;;;5039163;28;20214;-66
2022/11/28 00:54:39;;;;;;;8.73;7.85;;;;;;;;;;5040210;28;20202;-65
2022/11/28 00:57:08;;;;;;;8.00;6.93;;;;;;;;;;5039056;28;20202;-65
2022/11/28 00:59:35;;;;;;;8.07;7.28;;;;;;;;;;5038949;28;20205;-65
2022/11/28 01:02:03;;;;;;;8.07;7.28;;;;;;;;;;5038931;28;20581;-65
2022/11/28 01:04:31;;;;;;;7.75;6.95;;;;;;;;;;5038859;28;20213;-65
2022/11/28 01:06:58;;;;;;;7.72;6.95;;;;;;;;;;5038970;28;20235;-65
2022/11/28 01:09:27;;;;;;;7.35;6.65;;;;;;;;;;5038937;28;20206;-65
2022/11/28 01:11:55;;;;;;;6.70;6.03;;;;;;;;;;5038791;28;20472;-65
2022/11/28 01:14:25;;;;;;;6.57;5.90;;;;;;;;;;5038669;28;20571;-65
2022/11/28 01:16:53;;;;;;;7.20;6.50;;;;;;;;;;5039009;28;20584;-65
2022/11/28 01:19:20;;;;;;;7.03;6.30;;;;;;;;;;5038548;28;20213;-65
2022/11/28 01:21:49;;;;;;;7.00;6.25;;;;;;;;;;5039813;28;20213;-65
2022/11/28 01:24:17;;;;;;;6.22;5.63;;;;;;;;;;5058258;28;20216;-65
2022/11/28 01:26:45;;;;;;;6.57;5.97;;;;;;;;;;5058240;28;20233;-65
2022/11/28 01:29:12;;;;;;;6.93;6.22;;;;;;;;;;5058795;28;20262;-65
2022/11/28 01:31:41;;;;;;;6.20;5.60;;;;;;;;;;5058650;28;20205;-65
2022/11/28 01:34:09;;;;;;;6.32;5.72;;;;;;;;;;5058607;28;20452;-65
2022/11/28 01:36:37;;;;;;;5.90;5.30;;;;;;;;;;5058809;28;20263;-65
2022/11/28 01:39:05;;;;;;;6.20;5.60;;;;;;;;;;5057693;28;20205;-65
2022/11/28 01:41:33;;;;;;;5.85;5.22;;;;;;;;;;5058088;28;20248;-65
2022/11/28 01:44:02;;;;;;;5.53;5.03;;;;;;;;;;5058560;28;20212;-65
2022/11/28 01:46:30;;;;;;;5.88;5.28;;;;;;;;;;5058278;28;20229;-66
2022/11/28 01:49:02;;;;;;;5.82;5.22;;;;;;;;;;5057797;28;20216;-65
2022/11/28 01:51:30;;;;;;;5.50;5.00;;;;;;;;;;5038094;28;20461;-65
2022/11/28 01:53:58;;;;;;;6.45;5.15;;;;;;;;;;5038101;28;20314;-65
2022/11/28 01:56:26;;;;;;;5.00;4.50;;;;;;;;;;5038277;28;20205;-65
2022/11/28 01:58:56;;;;;;;5.10;4.60;;;;;;;;;;5038089;28;20606;-65
2022/11/28 02:01:24;;;;;;;5.18;4.68;;;;;;;;;;5037890;28;20303;-65
2022/11/28 02:03:53;;;;;;;5.05;4.65;;;;;;;;;;5037700;28;20213;-65
2022/11/28 02:06:24;;;;;;;5.13;4.63;;;;;;;;;;5037837;28;20581;-65
2022/11/28 02:08:52;;;;;;;5.18;4.68;;;;;;;;;;5037795;28;20205;-65
2022/11/28 02:11:34;;;;;;;4.82;4.43;;;;;;;;;;5038226;28;20292;-65
2022/11/28 02:14:06;;;;;;;4.72;4.32;;;;;;;;;;5034906;28;20213;-65
2022/11/28 02:16:40;;;;;;;4.63;4.22;;;;;;;;;;5038224;28;20201;-65
2022/11/28 02:19:17;;;;;;;4.88;4.38;;;;;;;;;;5037611;28;20236;-65
2022/11/28 02:21:56;;;;;;;4.65;4.22;;;;;;;;;;5037655;28;20267;-65
2022/11/28 02:24:41;;;;;;;5.10;4.60;;;;;;;;;;5037564;28;20209;-65
2022/11/28 02:27:15;;;;;;;4.85;4.45;;;;;;;;;;5038204;28;20235;-65
2022/11/28 02:29:53;;;;;;;4.45;4.05;;;;;;;;;;5037377;28;20212;-65
2022/11/28 02:32:27;;;;;;;4.40;4.00;;;;;;;;;;5037301;28;20217;-65
2022/11/28 02:34:57;;;;;;;4.55;4.15;;;;;;;;;;5037350;28;20213;-65
2022/11/28 02:37:28;;;;;;;4.75;4.28;;;;;;;;;;5037260;28;20244;-65
2022/11/28 02:40:02;;;;;;;4.03;3.63;;;;;;;;;;5037374;28;20626;-65
2022/11/28 02:42:32;;;;;;;4.38;3.97;;;;;;;;;;5037237;28;20607;-65
2022/11/28 02:45:01;;;;;;;4.00;3.70;;;;;;;;;;5046873;28;20220;-65
2022/11/28 02:47:33;;;;;;;4.18;3.78;;;;;;;;;;5056737;28;20286;-65
2022/11/28 02:50:05;;;;;;;4.15;3.85;;;;;;;;;;5056880;28;20270;-66
2022/11/28 02:52:35;;;;;;;4.50;4.10;;;;;;;;;;5057038;28;20212;-65
2022/11/28 02:55:04;;;;;;;4.25;3.85;;;;;;;;;;5056762;28;20250;-65
2022/11/28 02:57:35;;;;;;;4.20;3.83;;;;;;;;;;5057181;28;20201;-65
2022/11/28 03:00:03;;;;;;;4.07;3.67;;;;;;;;;;5056763;28;20240;-65
2022/11/28 03:02:34;;;;;;;4.50;4.10;;;;;;;;;;5056816;28;20243;-65
2022/11/28 03:05:06;;;;;;;3.95;3.65;;;;;;;;;;5057002;28;20594;-65
2022/11/28 03:07:40;;;;;;;3.80;3.50;;;;;;;;;;5056491;28;20330;-65
2022/11/28 03:10:15;;;;;;;3.75;3.45;;;;;;;;;;5057038;28;20307;-65
2022/11/28 03:12:51;;;;;;;3.90;3.60;;;;;;;;;;5044094;28;20206;-65
2022/11/28 03:15:21;;;;;;;3.80;3.50;;;;;;;;;;5036446;28;20279;-65
2022/11/28 03:17:54;;;;;;;4.03;3.67;;;;;;;;;;5036403;28;20526;-65
2022/11/28 03:20:23;;;;;;;4.22;3.83;;;;;;;;;;5036496;28;20324;-65
2022/11/28 03:23:00;;;;;;;3.83;3.35;;;;;;;;;;5036513;28;20241;-65
2022/11/28 03:25:29;;;;;;;3.60;3.30;;;;;;;;;;5036396;28;20303;-65
2022/11/28 03:27:59;;;;;;;3.55;3.25;;;;;;;;;;5036694;28;20316;-65
2022/11/28 03:30:30;;;;;;;3.78;3.47;;;;;;;;;;5036742;28;20609;-65
2022/11/28 03:33:01;;;;;;;3.75;3.42;;;;;;;;;;5036698;28;20237;-65
2022/11/28 03:35:30;;;;;;;3.80;3.50;;;;;;;;;;5036892;28;20217;-65
2022/11/28 03:38:01;;;;;;;3.78;3.47;;;;;;;;;;5036703;28;20618;-65
2022/11/28 03:40:31;;;;;;;3.40;3.20;;;;;;;;;;5049201;28;20204;-65
2022/11/28 03:43:01;;;;;;;3.67;3.38;;;;;;;;;;5056396;28;20205;-65
2022/11/28 03:45:30;;;;;;;3.83;3.53;;;;;;;;;;5056877;28;20206;-65
2022/11/28 03:47:59;;;;;;;3.95;3.55;;;;;;;;;;5056405;28;20610;-65
2022/11/28 03:50:30;;;;;;;3.47;3.17;;;;;;;;;;5056591;28;20228;-65
2022/11/28 03:53:00;;;;;;;3.70;3.40;;;;;;;;;;5056152;28;20484;-65
2022/11/28 03:55:30;;;;;;;3.60;3.30;;;;;;;;;;5056081;28;20212;-65
2022/11/28 03:57:59;;;;;;;3.50;3.20;;;;;;;;;;5056246;28;20474;-65
2022/11/28 04:00:27;;;;;;;3.67;3.38;;;;;;;;;;5055930;28;20645;-65
2022/11/28 04:02:58;;;;;;;3.45;3.15;;;;;;;;;;5059627;28;20204;-65
2022/11/28 04:05:31;;;;;;;3.40;3.10;;;;;;;;;;5046054;28;20202;-65
2022/11/28 04:08:00;;;;;;;3.40;3.10;;;;;;;;;;5039634;28;20225;-65
2022/11/28 04:10:32;;;;;;;3.25;2.95;;;;;;;;;;5040176;28;20210;-65
2022/11/28 04:13:01;;;;;;;3.80;3.50;;;;;;;;;;5039880;28;20202;-65
2022/11/28 04:15:31;;;;;;;3.53;3.22;;;;;;;;;;5039711;28;20206;-65
2022/11/28 04:18:01;;;;;;;3.40;3.10;;;;;;;;;;5039792;28;20318;-65
2022/11/28 04:20:35;;;;;;;3.30;3.00;;;;;;;;;;5040091;28;20205;-65
2022/11/28 04:23:05;;;;;;;3.65;3.35;;;;;;;;;;5040036;28;20289;-65
2022/11/28 04:25:35;;;;;;;3.60;3.30;;;;;;;;;;5039795;28;20284;-65
2022/11/28 04:28:05;;;;;;;3.30;3.10;;;;;;;;;;5039292;28;20225;-65
2022/11/28 04:30:34;;;;;;;3.35;3.05;;;;;;;;;;5038984;28;20212;-65
2022/11/28 04:33:03;;;;;;;3.45;3.15;;;;;;;;;;5053011;28;20212;-65
2022/11/28 04:35:34;;;;;;;3.40;3.20;;;;;;;;;;5058835;28;20224;-66
2022/11/28 04:38:03;;;;;;;3.45;3.15;;;;;;;;;;5059344;28;20201;-65
2022/11/28 04:40:33;;;;;;;3.00;2.80;;;;;;;;;;5059330;28;20283;-65
2022/11/28 04:43:03;;;;;;;3.08;2.88;;;;;;;;;;5059099;28;20205;-65
2022/11/28 04:45:33;;;;;;;3.63;3.33;;;;;;;;;;5058949;28;20279;-65
2022/11/28 04:48:01;;;;;;;3.25;3.05;;;;;;;;;;5058710;28;20225;-65
2022/11/28 04:50:31;;;;;;;3.33;3.03;;;;;;;;;;5058637;28;20201;-65
2022/11/28 04:53:02;;;;;;;3.20;2.97;;;;;;;;;;5058806;28;20233;-65
2022/11/28 04:55:34;;;;;;;3.13;2.90;;;;;;;;;;5058705;28;20212;-65
2022/11/28 04:58:05;;;;;;;3.42;3.13;;;;;;;;;;5058214;28;20220;-65
2022/11/28 05:00:34;;;;;;;2.92;2.72;;;;;;;;;;5057800;28;20239;-65
2022/11/28 05:03:02;;;;;;;3.22;2.92;;;;;;;;;;5058333;28;20215;-65
2022/11/28 05:05:29;;;;;;;3.20;2.90;;;;;;;;;;5058281;28;20251;-65
2022/11/28 05:07:58;;;;;;;3.13;2.90;;;;;;;;;;5057879;28;20224;-66
2022/11/28 05:10:27;;;;;;;3.10;2.80;;;;;;;;;;5057738;28;20797;-65
2022/11/28 05:12:54;;;;;;;2.97;2.78;;;;;;;;;;5057523;28;20539;-65
2022/11/28 05:15:22;;;;;;;2.88;2.67;;;;;;;;;;5057293;28;20197;-65
2022/11/28 05:17:50;;;;;;;3.33;3.03;;;;;;;;;;5057515;28;20212;-65
2022/11/28 05:20:17;;;;;;;3.28;2.97;;;;;;;;;;5056933;28;20262;-65
2022/11/28 05:22:45;;;;;;;2.92;2.72;;;;;;;;;;5057386;28;20235;-65
2022/11/28 05:25:12;;;;;;;3.10;2.80;;;;;;;;;;5057088;28;20216;-65
2022/11/28 05:27:41;;;;;;;3.08;2.85;;;;;;;;;;5057168;28;20231;-65
2022/11/28 05:30:11;;;;;;;3.15;2.85;;;;;;;;;;5052816;28;20206;-65
2022/11/28 05:32:38;;;;;;;3.03;2.80;;;;;;;;;;5019318;28;20497;-65
2022/11/28 05:35:06;;;;;;;2.88;2.67;;;;;;;;;;5037072;28;20206;-66
2022/11/28 05:37:34;;;;;;;3.40;3.10;;;;;;;;;;5037058;28;20213;-65
2022/11/28 05:40:02;;;;;;;2.55;2.35;;;;;;;;;;5036324;28;20517;-65
2022/11/28 05:42:32;;;;;;;3.13;2.92;;;;;;;;;;5036802;28;20338;-66
2022/11/28 05:45:01;;;;;;;2.80;2.60;;;;;;;;;;5036453;28;20212;-65
2022/11/28 05:47:30;;;;;;;2.78;2.58;;;;;;;;;;5036150;28;20225;-66
2022/11/28 05:49:58;;;;;;;2.92;2.72;;;;;;;;;;5036060;28;20223;-66
2022/11/28 05:52:28;;;;;;;2.95;2.75;;;;;;;;;;5036219;28;20753;-65
2022/11/28 05:54:55;;;;;;;3.00;2.80;;;;;;;;;;5035626;28;20241;-65
2022/11/28 05:57:23;;;;;;;3.22;2.95;;;;;;;;;;5036369;28;20205;-65
2022/11/28 05:59:50;;;;;;;2.95;2.75;;;;;;;;;;5052425;28;20243;-65
2022/11/28 06:02:19;;;;;;;2.97;2.78;;;;;;;;;;5036606;28;20230;-65
2022/11/28 06:04:46;;;;;;;2.70;2.50;;;;;;;;;;5035976;28;20212;-66
2022/11/28 06:07:14;;;;;;;2.60;2.40;;;;;;;;;;5034873;28;20745;-65
2022/11/28 06:09:41;;;;;;;3.40;3.10;;;;;;;;;;5034747;28;20738;-65
2022/11/28 06:12:09;;;;;;;2.80;2.60;;;;;;;;;;5035024;28;20213;-65
2022/11/28 06:14:36;;;;;;;2.75;2.53;;;;;;;;;;5035122;28;20201;-65
2022/11/28 06:17:03;;;;;;;2.88;2.67;;;;;;;;;;5034255;28;20201;-65
2022/11/28 06:19:32;;;;;;;2.80;2.60;;;;;;;;;;5034177;28;20208;-66
2022/11/28 06:22:00;;;;;;;3.00;2.78;;;;;;;;;;5034344;28;20205;-66
2022/11/28 06:24:27;;;;;;;2.78;2.58;;;;;;;;;;5033482;28;20205;-65
2022/11/28 06:26:55;;;;;;;3.15;2.95;;;;;;;;;;5033525;28;20217;-65
2022/11/28 06:29:22;;;;;;;2.90;2.70;;;;;;;;;;5033459;28;20202;-65
2022/11/28 06:31:49;;;;;;;3.10;2.80;;;;;;;;;;5033388;28;20205;-65
2022/11/28 06:34:17;;;;;;;3.08;2.67;;;;;;;;;;5033603;28;20198;-65
2022/11/28 06:36:46;;;;;;;3.00;2.80;;;;;;;;;;5034282;28;20206;-65
2022/11/28 06:39:14;;;;;;;2.95;2.75;;;;;;;;;;5033545;28;20205;-65
2022/11/28 06:41:42;;;;;;;2.75;2.55;;;;;;;;;;5032493;28;20206;-65
2022/11/28 06:44:09;;;;;;;3.10;2.80;;;;;;;;;;5037462;28;20201;-65
2022/11/28 06:46:37;;;;;;;2.80;2.60;;;;;;;;;;5054315;28;20205;-65
2022/11/28 06:49:04;;;;;;;2.80;2.60;;;;;;;;;;5053125;28;20201;-65
2022/11/28 06:51:32;;;;;;;2.83;2.60;;;;;;;;;;5053521;28;20205;-65
2022/11/28 06:54:00;;;;;;;2.90;2.70;;;;;;;;;;5053657;28;20209;-65
2022/11/28 06:56:28;;;;;;;3.20;2.90;;;;;;;;;;5053926;28;20263;-65
2022/11/28 06:58:56;;;;;;;2.95;2.75;;;;;;;;;;5053097;28;20207;-65
2022/11/28 07:01:24;;;;;;;2.90;2.70;;;;;;;;;;5053775;28;20241;-65
2022/11/28 07:03:53;;;;;;;2.97;2.78;;;;;;;;;;5053779;28;20200;-65
2022/11/28 07:06:20;;;;;;;2.70;2.50;;;;;;;;;;5054335;28;20216;-65
2022/11/28 07:08:48;;;;;;;3.33;2.88;;;;;;;;;;5054543;28;20240;-66
2022/11/28 07:11:18;;;;;;;3.17;2.55;;;;;;;;;;5055351;28;20215;-65
2022/11/28 07:13:45;;;;;;;4.10;3.08;;;;;;;;;;5054343;28;20197;-66
2022/11/28 07:16:14;;;;;;;9.65;3.00;;;;;;;;;;5054292;28;20616;-65
2022/11/28 07:18:42;;;;;;;3.17;2.75;;;;;;;;;;5054510;28;20215;-65
2022/11/28 07:21:09;;;;;;;7.30;2.75;;;;;;;;;;5054046;28;20215;-65
2022/11/28 07:23:37;;;;;;;2.92;2.72;;;;;;;;;;5054457;28;20558;-65
2022/11/28 07:26:05;;;;;;;3.08;2.65;;;;;;;;;;5055015;28;20208;-65
2022/11/28 07:28:34;;;;;;;3.17;2.83;;;;;;;;;;5053963;28;20220;-65
2022/11/28 07:31:03;;;;;;;2.80;2.60;;;;;;;;;;5053743;28;20486;-65
2022/11/28 07:33:30;;;;;;;3.30;2.35;;;;;;;;;;5054245;28;20205;-66
2022/11/28 07:36:01;;;;;;;3.58;2.83;;;;;;;;;;5054848;28;20769;-66
2022/11/28 07:38:28;;;;;;;3.05;2.72;;;;;;;;;;5059094;28;20649;-65
2022/11/28 07:40:56;;;;;;;3.15;2.83;;;;;;;;;;5057991;28;20275;-65
2022/11/28 07:43:23;;;;;;;3.30;3.00;;;;;;;;;;5057700;28;20197;-66
2022/11/28 07:45:52;;;;;;;3.05;2.67;;;;;;;;;;5057821;28;20201;-66
2022/11/28 07:48:20;;;;;;;3.45;2.80;;;;;;;;;;5057868;28;20718;-66
2022/11/28 07:50:47;;;;;;;2.95;2.65;;;;;;;;;;5056519;28;20201;-65
2022/11/28 07:53:15;;;;;;;2.63;2.42;;;;;;;;;;5057498;28;20296;-66
2022/11/28 07:55:42;;;;;;;2.92;2.65;;;;;;;;;;5058051;28;20205;-66
2022/11/28 07:58:10;;;;;;;3.13;2.83;;;;;;;;;;5057676;28;20223;-65
2022/11/28 08:00:37;;;;;;;2.83;2.63;;;;;;;;;;5057323;28;20237;-66
2022/11/28 08:03:06;;;;;;;3.00;2.80;;;;;;;;;;5048203;28;20200;-66
2022/11/28 08:05:33;;;;;;;2.80;2.60;;;;;;;;;;5039029;28;20202;-65
2022/11/28 08:08:01;;;;;;;2.70;2.50;;;;;;;;;;5036949;28;20222;-65
2022/11/28 08:10:28;;;;;;;2.55;2.28;;;;;;;;;;5037402;28;20205;-65
2022/11/28 08:12:56;;;;;;;3.17;2.90;;;;;;;;;;5036896;28;20206;-65
2022/11/28 08:15:29;;;;;;;3.13;2.63;;;;;;;;;;5037393;28;20249;-65
2022/11/28 08:17:57;;;;;;;2.70;2.50;;;;;;;;;;5036987;28;20292;-66
2022/11/28 08:20:26;;;;;;;3.13;2.83;;;;;;;;;;5036576;28;20207;-65
2022/11/28 08:22:53;;;;;;;2.80;2.60;;;;;;;;;;5036974;28;20502;-65
2022/11/28 08:25:21;;;;;;;2.97;2.78;;;;;;;;;;5037072;28;20202;-65
2022/11/28 08:27:48;;;;;;;3.05;2.85;;;;;;;;;;5036754;28;20222;-65
2022/11/28 08:30:16;;;;;;;2.97;2.78;;;;;;;;;;5036833;28;20231;-65
2022/11/28 08:32:43;;;;;;;2.67;2.47;;;;;;;;;;5036462;28;20205;-66
2022/11/28 08:35:11;;;;;;;3.00;2.80;;;;;;;;;;5036006;28;20206;-65
2022/11/28 08:37:39;;;;;;;3.00;2.70;;;;;;;;;;5036835;28;20201;-65
2022/11/28 08:40:08;;;;;;;3.17;2.97;;;;;;;;;;5036622;28;20219;-65
2022/11/28 08:42:35;;;;;;;2.90;2.70;;;;;;;;;;5056170;28;20625;-65
2022/11/28 08:45:02;;;;;;;2.90;2.70;;;;;;;;;;5057276;28;20699;-65
2022/11/28 08:47:30;;;;;;;3.00;2.70;;;;;;;;;;5055480;28;20215;-65
2022/11/28 08:49:57;;;;;;;3.20;2.97;;;;;;;;;;5055256;28;20607;-65
2022/11/28 08:52:25;;;;;;;2.90;2.70;;;;;;;;;;5055287;28;20606;-65
2022/11/28 08:54:54;;;;;;;2.75;2.55;;;;;;;;;;5055284;28;20196;-65
2022/11/28 08:57:21;;;;;;;2.83;2.63;;;;;;;;;;5056057;28;20582;-65
2022/11/28 08:59:49;;;;;;;3.28;2.97;;;;;;;;;;5035579;28;20240;-65
2022/11/28 09:02:16;;;;;;;3.00;2.80;;;;;;;;;;5035976;28;20213;-65
2022/11/28 09:04:44;;;;;;;3.22;2.92;;;;;;;;;;5036290;28;20205;-65
2022/11/28 09:07:11;;;;;;;3.20;2.90;;;;;;;;;;5036477;28;20209;-65
2022/11/28 09:09:39;;;;;;;3.10;2.90;;;;;;;;;;5035927;28;20229;-65
2022/11/28 09:12:08;;;;;;;3.17;2.90;;;;;;;;;;5035834;28;20480;-65
2022/11/28 09:14:35;;;;;;;3.60;3.30;;;;;;;;;;5035794;28;20204;-65
2022/11/28 09:17:03;;;;;;;3.60;3.20;;;;;;;;;;5035659;28;20361;-65
2022/11/28 09:19:30;;;;;;;3.70;3.40;;;;;;;;;;5035999;28;20206;-65
2022/11/28 09:21:58;;;;;;;3.33;2.97;;;;;;;;;;5035691;28;20198;-65
2022/11/28 09:24:25;;;;;;;3.60;3.30;;;;;;;;;;5036567;28;20216;-66
2022/11/28 09:26:53;;;;;;;3.72;3.35;;;;;;;;;;5035962;28;20296;-66
2022/11/28 09:29:22;;;;;;;3.17;2.95;;;;;;;;;;5036300;28;20252;-66
2022/11/28 09:31:49;;;;;;;3.28;2.80;;;;;;;;;;5035618;28;20201;-66
2022/11/28 09:34:17;;;;;;;3.42;3.13;;;;;;;;;;5036047;28;20206;-66
2022/11/28 09:36:44;;;;;;;3.25;2.97;;;;;;;;;;5035413;28;20233;-65
2022/11/28 09:39:11;;;;;;;4.45;3.50;;;;;;;;;;5035332;28;20568;-65
2022/11/28 09:41:54;;;;;;;3.42;3.17;;;;;;;;;;5036103;28;20551;-66
2022/11/28 09:44:25;;;;;;;22.10;20.00;;;;;;;;;;5033339;28;20206;-66
2022/11/28 09:46:55;;;;;;;15.77;14.30;;;;;;;;;;5035154;28;20205;-66
2022/11/28 09:49:30;;;;;;;15.45;14.13;;;;;;;;;;5035446;28;20241;-65
2022/11/28 09:52:00;;;;;;;14.90;13.60;;;;;;;;;;5035649;28;20308;-66
2022/11/28 09:54:33;;;;;;;14.07;12.77;;;;;;;;;;5037681;28;20500;-65
2022/11/28 09:57:01;;;;;;;14.23;12.82;;;;;;;;;;5035570;28;20609;-65
2022/11/28 09:59:30;;;;;;;12.85;11.65;;;;;;;;;;5034659;28;20485;-65
2022/11/28 10:02:04;;;;;;;13.45;12.25;;;;;;;;;;5034956;28;20212;-65
2022/11/28 10:04:35;;;;;;;12.38;10.90;;;;;;;;;;5033459;28;20309;-65
2022/11/28 10:07:05;;;;;;;12.07;10.88;;;;;;;;;;5034599;28;20630;-65
2022/11/28 10:09:38;;;;;;;11.63;10.52;;;;;;;;;;5034624;28;20237;-65
2022/11/28 10:12:11;;;;;;;10.82;9.82;;;;;;;;;;5034398;28;20213;-65
2022/11/28 10:15:02;;;;;;;10.48;9.57;;;;;;;;;;5034801;28;20219;-65
2022/11/28 10:17:37;;;;;;;10.68;9.45;;;;;;;;;;5010890;28;20216;-65
2022/11/28 10:20:06;;;;;;;9.52;8.68;;;;;;;;;;5034636;28;20204;-65
2022/11/28 10:22:38;;;;;;;9.35;8.45;;;;;;;;;;5035394;28;20206;-65
2022/11/28 10:25:09;;;;;;;8.90;8.10;;;;;;;;;;5035347;28;20212;-65
2022/11/28 10:27:36;;;;;;;8.70;7.72;;;;;;;;;;5034198;28;20205;-65
2022/11/28 10:30:06;;;;;;;8.98;8.07;;;;;;;;;;5034344;28;20226;-65
2022/11/28 10:32:37;;;;;;;8.43;7.72;;;;;;;;;;5034427;28;20481;-65
2022/11/28 10:35:06;;;;;;;7.63;6.93;;;;;;;;;;5034336;28;20201;-65
2022/11/28 10:37:36;;;;;;;9.05;8.25;;;;;;;;;;5034342;28;20215;-65
2022/11/28 10:40:14;;;;;;;8.25;7.55;;;;;;;;;;5033053;28;20597;-65
2022/11/28 10:42:45;;;;;;;7.78;7.07;;;;;;;;;;5033652;28;20316;-65
2022/11/28 10:45:19;;;;;;;8.00;7.30;;;;;;;;;;5033813;28;20590;-65
2022/11/28 10:48:07;;;;;;;7.50;6.80;;;;;;;;;;5034237;28;20202;-65
2022/11/28 10:50:39;;;;;;;7.15;6.47;;;;;;;;;;5026262;28;20217;-65
2022/11/28 10:53:10;;;;;;;7.05;6.45;;;;;;;;;;5034052;28;20233;-65
2022/11/28 10:55:42;;;;;;;6.85;6.25;;;;;;;;;;5038818;28;20480;-65
2022/11/28 10:58:13;;;;;;;6.47;5.88;;;;;;;;;;5054033;28;20205;-66
2022/11/28 11:00:44;;;;;;;6.93;6.30;;;;;;;;;;5053416;28;20302;-65
2022/11/28 11:03:14;;;;;;;6.65;6.05;;;;;;;;;;5053266;28;20291;-66
2022/11/28 11:05:42;;;;;;;6.82;5.88;;;;;;;;;;5049923;28;20232;-65
2022/11/28 11:08:13;;;;;;;6.38;5.82;;;;;;;;;;5053576;28;20213;-65
2022/11/28 11:10:43;;;;;;;6.63;6.03;;;;;;;;;;5047558;28;20200;-65
2022/11/28 11:13:16;;;;;;;6.45;5.78;;;;;;;;;;5052254;28;20288;-65
2022/11/28 11:15:44;;;;;;;6.70;6.05;;;;;;;;;;5057182;28;20205;-65
2022/11/28 11:18:22;;;;;;;6.10;5.50;;;;;;;;;;5057530;28;20211;-65
2022/11/28 11:20:51;;;;;;;27.80;25.25;;;;;;;;;;5057136;28;20215;-65
2022/11/28 11:23:19;;;;;;;36.60;33.03;;;;;;;;;;5057659;28;20300;-65
2022/11/28 11:25:57;;;;;;;26.77;24.23;;;;;;;;;;5057520;28;20220;-65
2022/11/28 11:28:38;;;;;;;24.20;21.83;;;;;;;;;;5057674;28;20321;-65
2022/11/28 11:31:06;;;;;;;23.15;20.95;;;;;;;;;;5057483;28;20219;-65
2022/11/28 11:33:35;;;;;;;21.42;19.35;;;;;;;;;;5056974;28;20297;-65
2022/11/28 11:36:05;;;;;;;20.70;18.70;;;;;;;;;;5056877;28;20578;-65
2022/11/28 11:38:34;;;;;;;20.17;18.20;;;;;;;;;;5057228;28;20193;-65
2022/11/28 11:41:19;;;;;;;19.52;17.73;;;;;;;;;;5057609;28;20232;-65
2022/11/28 11:43:46;;;;;;;18.77;17.08;;;;;;;;;;5056952;28;20219;-65
2022/11/28 11:46:15;;;;;;;18.48;16.77;;;;;;;;;;5057301;28;20229;-65
2022/11/28 11:48:43;;;;;;;17.20;15.35;;;;;;;;;;5056758;28;20233;-65
2022/11/28 11:51:21;;;;;;;17.58;15.77;;;;;;;;;;5056414;28;20216;-65
2022/11/28 11:53:49;;;;;;;15.90;14.50;;;;;;;;;;5056212;28;20197;-65
2022/11/28 11:56:16;;;;;;;15.95;14.55;;;;;;;;;;5057057;28;20300;-65
2022/11/28 11:58:46;;;;;;;14.82;13.48;;;;;;;;;;5056887;28;20193;-65
2022/11/28 12:01:14;;;;;;;15.25;13.73;;;;;;;;;;5056022;28;20249;-65
2022/11/28 12:03:42;;;;;;;14.55;13.10;;;;;;;;;;5056303;28;20205;-65
2022/11/28 12:06:14;;;;;;;13.00;11.80;;;;;;;;;;5055899;28;20266;-65
2022/11/28 12:08:44;;;;;;;12.88;11.68;;;;;;;;;;5056114;28;20221;-65
2022/11/28 12:11:15;;;;;;;13.40;12.10;;;;;;;;;;5056358;28;20227;-65
2022/11/28 12:13:42;;;;;;;12.43;11.32;;;;;;;;;;5056181;28;20216;-65
2022/11/28 12:16:21;;;;;;;12.07;10.98;;;;;;;;;;5056459;28;20209;-65
2022/11/28 12:18:54;;;;;;;11.90;10.70;;;;;;;;;;5056654;28;20232;-65
2022/11/28 12:21:26;;;;;;;11.60;10.60;;;;;;;;;;5056243;28;20208;-65
2022/11/28 12:24:00;;;;;;;10.98;9.98;;;;;;;;;;5056978;28;20209;-65
2022/11/28 12:26:33;;;;;;;10.23;9.27;;;;;;;;;;5055369;28;20262;-65
2022/11/28 12:29:07;;;;;;;10.50;9.50;;;;;;;;;;5055551;28;20229;-65
2022/11/28 12:31:40;;;;;;;10.02;9.13;;;;;;;;;;5054804;28;20212;-65
2022/11/28 12:34:13;;;;;;;9.40;8.60;;;;;;;;;;5056095;28;20208;-65
2022/11/28 12:36:45;;;;;;;9.65;8.80;;;;;;;;;;5055853;28;20196;-65
2022/11/28 12:39:18;;;;;;;9.27;8.50;;;;;;;;;;5056168;28;20223;-65
2022/11/28 12:42:18;;;;;;;9.32;8.52;;;;;;;;;;5056088;28;20263;-65
2022/11/28 12:44:53;;;;;;;9.00;8.20;;;;;;;;;;4954694;29;20212;-65
2022/11/28 12:47:27;;;;;;;8.18;7.47;;;;;;;;;;4954598;29;20204;-65
2022/11/28 12:49:58;;;;;;;7.95;7.25;;;;;;;;;;5009982;28;20234;-65
2022/11/28 12:52:32;;;;;;;8.10;7.38;;;;;;;;;;5054584;28;20200;-65
2022/11/28 12:55:09;;;;;;;8.50;7.80;;;;;;;;;;5055317;28;20218;-65
2022/11/28 12:57:40;;;;;;;7.90;7.20;;;;;;;;;;5055994;28;20197;-65
2022/11/28 13:00:12;;;;;;;8.18;7.40;;;;;;;;;;5055526;28;20236;-65
2022/11/28 13:02:44;;;;;;;7.40;6.78;;;;;;;;;;5054451;28;20197;-65
2022/11/28 13:05:18;;;;;;;7.43;6.75;;;;;;;;;;5055391;28;20216;-65
2022/11/28 13:07:53;;;;;;;7.72;7.07;;;;;;;;;;5054569;28;20304;-65
2022/11/28 13:10:23;;;;;;;7.30;6.60;;;;;;;;;;5054868;28;20629;-65
2022/11/28 13:12:53;;;;;;;7.25;6.65;;;;;;;;;;5055461;28;20571;-65
2022/11/28 13:15:24;;;;;;;6.72;6.13;;;;;;;;;;5045984;28;20590;-65
2022/11/28 13:17:54;;;;;;;6.80;6.20;;;;;;;;;;5045577;28;20624;-64
2022/11/28 13:20:26;;;;;;;7.45;6.72;;;;;;;;;;5054952;28;20197;-65
2022/11/28 13:23:04;;;;;;;6.32;5.80;;;;;;;;;;5054853;28;20201;-65
2022/11/28 13:25:35;;;;;;;16.85;15.35;;;;;;;;;;5054682;28;20722;-64
2022/11/28 13:28:08;;;;;;;12.25;11.15;;;;;;;;;;5054580;28;20227;-65
2022/11/28 13:30:38;;;;;;;11.07;10.07;;;;;;;;;;5053740;28;20323;-65
2022/11/28 13:33:08;;;;;;;11.43;10.32;;;;;;;;;;5055298;28;20211;-65
2022/11/28 13:35:35;;;;;;;10.75;9.75;;;;;;;;;;5054502;28;20212;-65
2022/11/28 13:38:06;;;;;;;10.25;9.35;;;;;;;;;;5054647;28;20633;-65
2022/11/28 13:40:39;;;;;;;10.25;9.32;;;;;;;;;;5054261;28;20219;-65
2022/11/28 13:43:14;;;;;;;10.70;9.80;;;;;;;;;;5054124;28;20211;-65
2022/11/28 13:45:42;;;;;;;9.23;8.43;;;;;;;;;;5054252;28;20710;-65
2022/11/28 13:48:28;;;;;;;9.07;8.30;;;;;;;;;;5053720;28;20211;-65
2022/11/28 13:51:00;;;;;;;9.13;8.32;;;;;;;;;;5052964;28;20505;-65
2022/11/28 13:53:29;;;;;;;9.25;8.35;;;;;;;;;;5053390;28;20287;-65
2022/11/28 13:56:21;;;;;;;9.07;8.32;;;;;;;;;;5053997;28;20205;-65
2022/11/28 13:58:51;;;;;;;8.63;7.82;;;;;;;;;;5029794;28;20208;-65
2022/11/28 14:01:19;;;;;;;9.07;7.60;;;;;;;;;;5053580;28;20233;-65
2022/11/28 14:03:48;;;;;;;8.00;7.30;;;;;;;;;;5052920;28;20706;-64
2022/11/28 14:06:18;;;;;;;8.38;7.68;;;;;;;;;;5053145;28;20699;-65
2022/11/28 14:08:47;;;;;;;7.53;6.85;;;;;;;;;;5054704;28;20287;-65
2022/11/28 14:11:24;;;;;;;7.90;7.20;;;;;;;;;;5052477;28;20232;-65
2022/11/28 14:14:06;;;;;;;113.22;102.43;;;;;;;;;;5053452;28;20200;-65
2022/11/28 14:16:40;;;;;;;51.83;46.85;;;;;;;;;;5000366;28;20569;-65
2022/11/28 14:19:16;;;;;;;43.63;39.40;;;;;;;;;;5053223;28;20494;-65
2022/11/28 14:21:50;;;;;;;41.60;37.47;;;;;;;;;;5053312;28;21024;-65
2022/11/28 14:24:23;;;;;;;38.42;34.67;;;;;;;;;;5053885;28;20204;-65
2022/11/28 14:26:57;;;;;;;37.60;34.10;;;;;;;;;;5053521;28;20235;-65
2022/11/28 14:29:26;;;;;;;35.55;32.25;;;;;;;;;;5053301;28;20231;-65
2022/11/28 14:31:55;;;;;;;34.40;31.17;;;;;;;;;;5053082;28;20574;-65
2022/11/28 14:34:38;;;;;;;34.78;31.40;;;;;;;;;;5053327;28;20212;-65
2022/11/28 14:37:26;;;;;;;32.28;29.27;;;;;;;;;;5053286;28;20204;-65
2022/11/28 14:39:55;;;;;;;30.45;27.70;;;;;;;;;;5052203;28;20590;-65
2022/11/28 14:42:38;;;;;;;30.05;27.20;;;;;;;;;;5052784;28;20300;-65
2022/11/28 14:45:20;;;;;;;28.85;26.15;;;;;;;;;;5053062;28;20292;-65
2022/11/28 14:48:02;;;;;;;27.95;25.27;;;;;;;;;;5052299;28;20200;-65
2022/11/28 14:50:49;;;;;;;26.98;24.33;;;;;;;;;;5052230;28;20220;-65
2022/11/28 14:53:41;;;;;;;361.02;325.92;;;;;;;;;;5051300;28;20212;-65
2022/11/28 14:56:21;;;;;;;170.35;153.48;;;;;;;;;;5027689;28;20220;-65